sensor_id;sensor_type;location;lat;lon;timestamp;P1;durP1;ratioP1;P2;durP2;ratioP2
56319;SDS011;42226;42.382;23.748;2022-09-03T00:00:35;17.23;;;15.30;;
56319;SDS011;42226;42.382;23.748;2022-09-03T00:03:11;15.70;;;13.68;;
56319;SDS011;42226;42.382;23.748;2022-09-03T00:05:47;14.23;;;12.80;;
56319;SDS011;42226;42.382;23.748;2022-09-03T00:08:41;13.93;;;12.73;;
56319;SDS011;42226;42.382;23.748;2022-09-03T00:14:22;13.70;;;12.40;;
56319;SDS011;42226;42.382;23.748;2022-09-03T00:17:14;13.38;;;12.10;;
56319;SDS011;42226;42.382;23.748;2022-09-03T00:19:46;13.40;;;12.10;;
56319;SDS011;42226;42.382;23.748;2022-09-03T00:22:28;12.48;;;11.45;;
56319;SDS011;42226;42.382;23.748;2022-09-03T00:25:20;12.80;;;11.68;;
56319;SDS011;42226;42.382;23.748;2022-09-03T00:28:16;13.63;;;12.25;;
56319;SDS011;42226;42.382;23.748;2022-09-03T00:30:55;12.18;;;10.93;;
56319;SDS011;42226;42.382;23.748;2022-09-03T00:33:46;11.73;;;10.65;;
56319;SDS011;42226;42.382;23.748;2022-09-03T00:36:21;14.07;;;12.65;;
56319;SDS011;42226;42.382;23.748;2022-09-03T00:47:48;13.23;;;10.80;;
56319;SDS011;42226;42.382;23.748;2022-09-03T00:50:58;12.98;;;10.98;;
56319;SDS011;42226;42.382;23.748;2022-09-03T00:59:42;11.60;;;10.45;;
56319;SDS011;42226;42.382;23.748;2022-09-03T01:02:25;12.07;;;10.95;;
56319;SDS011;42226;42.382;23.748;2022-09-03T01:11:07;11.48;;;10.38;;
56319;SDS011;42226;42.382;23.748;2022-09-03T01:13:55;11.63;;;10.43;;
56319;SDS011;42226;42.382;23.748;2022-09-03T01:17:00;11.00;;;9.90;;
56319;SDS011;42226;42.382;23.748;2022-09-03T01:25:32;11.27;;;9.50;;
56319;SDS011;42226;42.382;23.748;2022-09-03T01:41:01;13.77;;;11.05;;
56319;SDS011;42226;42.382;23.748;2022-09-03T01:44:06;11.27;;;10.20;;
56319;SDS011;42226;42.382;23.748;2022-09-03T01:46:49;11.85;;;9.77;;
56319;SDS011;42226;42.382;23.748;2022-09-03T01:49:54;12.07;;;9.77;;
56319;SDS011;42226;42.382;23.748;2022-09-03T01:53:12;14.88;;;9.60;;
56319;SDS011;42226;42.382;23.748;2022-09-03T01:58:46;10.98;;;9.88;;
56319;SDS011;42226;42.382;23.748;2022-09-03T02:01:29;12.95;;;9.93;;
56319;SDS011;42226;42.382;23.748;2022-09-03T02:04:20;11.35;;;10.00;;
56319;SDS011;42226;42.382;23.748;2022-09-03T02:06:50;10.93;;;9.82;;
56319;SDS011;42226;42.382;23.748;2022-09-03T02:09:22;10.57;;;9.57;;
56319;SDS011;42226;42.382;23.748;2022-09-03T02:11:52;11.90;;;10.60;;
56319;SDS011;42226;42.382;23.748;2022-09-03T02:14:36;10.73;;;9.27;;
56319;SDS011;42226;42.382;23.748;2022-09-03T02:17:03;10.68;;;9.45;;
56319;SDS011;42226;42.382;23.748;2022-09-03T02:19:31;10.50;;;9.18;;
56319;SDS011;42226;42.382;23.748;2022-09-03T02:22:01;14.10;;;9.52;;
56319;SDS011;42226;42.382;23.748;2022-09-03T02:24:29;9.80;;;8.82;;
56319;SDS011;42226;42.382;23.748;2022-09-03T02:26:57;9.88;;;8.88;;
56319;SDS011;42226;42.382;23.748;2022-09-03T02:29:25;9.85;;;8.85;;
56319;SDS011;42226;42.382;23.748;2022-09-03T02:31:53;9.77;;;8.70;;
56319;SDS011;42226;42.382;23.748;2022-09-03T02:34:20;9.55;;;8.50;;
56319;SDS011;42226;42.382;23.748;2022-09-03T02:36:49;10.60;;;8.93;;
56319;SDS011;42226;42.382;23.748;2022-09-03T02:39:16;9.52;;;8.63;;
56319;SDS011;42226;42.382;23.748;2022-09-03T02:41:44;11.20;;;8.48;;
56319;SDS011;42226;42.382;23.748;2022-09-03T02:44:29;9.20;;;8.23;;
56319;SDS011;42226;42.382;23.748;2022-09-03T02:47:02;9.55;;;8.63;;
56319;SDS011;42226;42.382;23.748;2022-09-03T02:49:31;9.73;;;8.73;;
56319;SDS011;42226;42.382;23.748;2022-09-03T02:52:01;11.52;;;9.00;;
56319;SDS011;42226;42.382;23.748;2022-09-03T02:54:35;11.25;;;8.50;;
56319;SDS011;42226;42.382;23.748;2022-09-03T02:57:06;10.50;;;9.02;;
56319;SDS011;42226;42.382;23.748;2022-09-03T02:59:40;11.70;;;8.90;;
56319;SDS011;42226;42.382;23.748;2022-09-03T03:02:10;8.68;;;7.72;;
56319;SDS011;42226;42.382;23.748;2022-09-03T03:04:38;10.15;;;7.97;;
56319;SDS011;42226;42.382;23.748;2022-09-03T03:07:06;8.77;;;7.20;;
56319;SDS011;42226;42.382;23.748;2022-09-03T03:09:34;9.02;;;8.07;;
56319;SDS011;42226;42.382;23.748;2022-09-03T03:12:02;10.65;;;7.90;;
56319;SDS011;42226;42.382;23.748;2022-09-03T03:14:30;10.80;;;8.75;;
56319;SDS011;42226;42.382;23.748;2022-09-03T03:16:57;8.80;;;8.00;;
56319;SDS011;42226;42.382;23.748;2022-09-03T03:19:23;9.35;;;8.15;;
56319;SDS011;42226;42.382;23.748;2022-09-03T03:21:51;8.52;;;7.72;;
56319;SDS011;42226;42.382;23.748;2022-09-03T03:24:18;8.85;;;7.97;;
56319;SDS011;42226;42.382;23.748;2022-09-03T03:26:45;9.40;;;8.50;;
56319;SDS011;42226;42.382;23.748;2022-09-03T03:29:15;9.32;;;8.52;;
56319;SDS011;42226;42.382;23.748;2022-09-03T03:31:43;7.70;;;6.95;;
56319;SDS011;42226;42.382;23.748;2022-09-03T03:34:11;8.10;;;7.30;;
56319;SDS011;42226;42.382;23.748;2022-09-03T03:36:39;7.75;;;6.93;;
56319;SDS011;42226;42.382;23.748;2022-09-03T03:39:07;8.90;;;8.10;;
56319;SDS011;42226;42.382;23.748;2022-09-03T03:41:35;8.27;;;7.47;;
56319;SDS011;42226;42.382;23.748;2022-09-03T03:44:04;8.60;;;7.70;;
56319;SDS011;42226;42.382;23.748;2022-09-03T03:46:34;8.90;;;7.28;;
56319;SDS011;42226;42.382;23.748;2022-09-03T03:49:05;7.75;;;7.05;;
56319;SDS011;42226;42.382;23.748;2022-09-03T03:51:34;8.07;;;7.30;;
56319;SDS011;42226;42.382;23.748;2022-09-03T03:54:03;11.18;;;8.30;;
56319;SDS011;42226;42.382;23.748;2022-09-03T03:56:30;9.45;;;7.03;;
56319;SDS011;42226;42.382;23.748;2022-09-03T03:58:57;8.25;;;7.35;;
56319;SDS011;42226;42.382;23.748;2022-09-03T04:01:25;10.07;;;7.53;;
56319;SDS011;42226;42.382;23.748;2022-09-03T04:03:56;7.90;;;7.10;;
56319;SDS011;42226;42.382;23.748;2022-09-03T04:06:24;7.45;;;6.35;;
56319;SDS011;42226;42.382;23.748;2022-09-03T04:08:51;9.07;;;7.70;;
56319;SDS011;42226;42.382;23.748;2022-09-03T04:11:19;8.70;;;6.72;;
56319;SDS011;42226;42.382;23.748;2022-09-03T04:13:49;9.05;;;8.00;;
56319;SDS011;42226;42.382;23.748;2022-09-03T04:16:26;8.25;;;6.60;;
56319;SDS011;42226;42.382;23.748;2022-09-03T04:18:54;7.93;;;7.00;;
56319;SDS011;42226;42.382;23.748;2022-09-03T04:21:23;8.20;;;7.32;;
56319;SDS011;42226;42.382;23.748;2022-09-03T04:23:53;8.02;;;6.70;;
56319;SDS011;42226;42.382;23.748;2022-09-03T04:26:23;7.47;;;6.70;;
56319;SDS011;42226;42.382;23.748;2022-09-03T04:28:56;9.20;;;7.93;;
56319;SDS011;42226;42.382;23.748;2022-09-03T04:31:29;9.82;;;7.72;;
56319;SDS011;42226;42.382;23.748;2022-09-03T04:33:57;8.88;;;7.70;;
56319;SDS011;42226;42.382;23.748;2022-09-03T04:36:25;9.70;;;7.68;;
56319;SDS011;42226;42.382;23.748;2022-09-03T04:38:57;9.60;;;7.70;;
56319;SDS011;42226;42.382;23.748;2022-09-03T04:41:26;8.45;;;7.55;;
56319;SDS011;42226;42.382;23.748;2022-09-03T04:43:56;9.00;;;7.18;;
56319;SDS011;42226;42.382;23.748;2022-09-03T04:46:25;8.25;;;7.40;;
56319;SDS011;42226;42.382;23.748;2022-09-03T04:48:57;9.27;;;7.35;;
56319;SDS011;42226;42.382;23.748;2022-09-03T04:51:26;7.68;;;6.53;;
56319;SDS011;42226;42.382;23.748;2022-09-03T04:54:00;7.95;;;6.82;;
56319;SDS011;42226;42.382;23.748;2022-09-03T04:56:29;7.38;;;6.40;;
56319;SDS011;42226;42.382;23.748;2022-09-03T04:59:08;6.43;;;5.93;;
56319;SDS011;42226;42.382;23.748;2022-09-03T05:01:36;7.60;;;6.43;;
56319;SDS011;42226;42.382;23.748;2022-09-03T05:04:05;7.05;;;6.35;;
56319;SDS011;42226;42.382;23.748;2022-09-03T05:06:33;7.47;;;5.95;;
56319;SDS011;42226;42.382;23.748;2022-09-03T05:09:03;7.68;;;6.78;;
56319;SDS011;42226;42.382;23.748;2022-09-03T05:11:32;6.78;;;6.15;;
56319;SDS011;42226;42.382;23.748;2022-09-03T05:14:00;6.45;;;5.85;;
56319;SDS011;42226;42.382;23.748;2022-09-03T05:16:28;6.35;;;5.75;;
56319;SDS011;42226;42.382;23.748;2022-09-03T05:18:56;6.40;;;5.80;;
56319;SDS011;42226;42.382;23.748;2022-09-03T05:21:26;6.90;;;6.25;;
56319;SDS011;42226;42.382;23.748;2022-09-03T05:23:54;6.40;;;5.80;;
56319;SDS011;42226;42.382;23.748;2022-09-03T05:26:30;7.53;;;5.93;;
56319;SDS011;42226;42.382;23.748;2022-09-03T05:29:03;6.78;;;5.80;;
56319;SDS011;42226;42.382;23.748;2022-09-03T05:31:37;8.98;;;5.90;;
56319;SDS011;42226;42.382;23.748;2022-09-03T05:34:05;6.72;;;6.03;;
56319;SDS011;42226;42.382;23.748;2022-09-03T05:36:35;6.20;;;5.60;;
56319;SDS011;42226;42.382;23.748;2022-09-03T05:39:04;6.55;;;5.93;;
56319;SDS011;42226;42.382;23.748;2022-09-03T05:41:32;6.55;;;5.85;;
56319;SDS011;42226;42.382;23.748;2022-09-03T05:43:59;6.13;;;5.63;;
56319;SDS011;42226;42.382;23.748;2022-09-03T05:46:29;6.10;;;5.60;;
56319;SDS011;42226;42.382;23.748;2022-09-03T05:48:59;5.72;;;5.22;;
56319;SDS011;42226;42.382;23.748;2022-09-03T05:51:31;5.80;;;5.30;;
56319;SDS011;42226;42.382;23.748;2022-09-03T05:54:01;5.95;;;5.32;;
56319;SDS011;42226;42.382;23.748;2022-09-03T05:56:28;6.15;;;5.55;;
56319;SDS011;42226;42.382;23.748;2022-09-03T05:58:59;7.85;;;6.20;;
56319;SDS011;42226;42.382;23.748;2022-09-03T06:01:34;6.03;;;5.53;;
56319;SDS011;42226;42.382;23.748;2022-09-03T06:04:05;6.05;;;5.55;;
56319;SDS011;42226;42.382;23.748;2022-09-03T06:06:39;5.90;;;5.40;;
56319;SDS011;42226;42.382;23.748;2022-09-03T06:09:09;6.50;;;5.90;;
56319;SDS011;42226;42.382;23.748;2022-09-03T06:11:42;6.32;;;5.75;;
56319;SDS011;42226;42.382;23.748;2022-09-03T06:14:12;5.70;;;5.20;;
56319;SDS011;42226;42.382;23.748;2022-09-03T06:16:41;5.78;;;5.28;;
56319;SDS011;42226;42.382;23.748;2022-09-03T06:19:10;6.70;;;5.97;;
56319;SDS011;42226;42.382;23.748;2022-09-03T06:21:40;6.40;;;5.90;;
56319;SDS011;42226;42.382;23.748;2022-09-03T06:24:12;6.65;;;6.05;;
56319;SDS011;42226;42.382;23.748;2022-09-03T06:26:42;6.25;;;5.60;;
56319;SDS011;42226;42.382;23.748;2022-09-03T06:29:11;6.20;;;5.70;;
56319;SDS011;42226;42.382;23.748;2022-09-03T06:31:42;6.72;;;6.13;;
56319;SDS011;42226;42.382;23.748;2022-09-03T06:34:18;6.60;;;6.00;;
56319;SDS011;42226;42.382;23.748;2022-09-03T06:39:42;7.05;;;6.35;;
56319;SDS011;42226;42.382;23.748;2022-09-03T07:34:16;5.20;;;4.68;;
56319;SDS011;42226;42.382;23.748;2022-09-03T07:36:45;5.32;;;4.82;;
56319;SDS011;42226;42.382;23.748;2022-09-03T10:17:18;5.25;;;4.75;;
56319;SDS011;42226;42.382;23.748;2022-09-03T12:33:06;4.78;;;4.38;;
56319;SDS011;42226;42.382;23.748;2022-09-03T12:49:43;4.68;;;4.22;;
56319;SDS011;42226;42.382;23.748;2022-09-03T12:55:42;4.53;;;4.13;;
56319;SDS011;42226;42.382;23.748;2022-09-03T13:12:45;3.95;;;3.65;;
56319;SDS011;42226;42.382;23.748;2022-09-03T14:04:39;3.92;;;3.63;;
56319;SDS011;42226;42.382;23.748;2022-09-03T14:10:53;4.53;;;4.18;;
56319;SDS011;42226;42.382;23.748;2022-09-03T17:02:36;4.35;;;3.95;;
56319;SDS011;42226;42.382;23.748;2022-09-03T17:06:07;4.97;;;4.57;;
56319;SDS011;42226;42.382;23.748;2022-09-03T17:17:42;4.30;;;4.00;;
56319;SDS011;42226;42.382;23.748;2022-09-03T17:26:42;10.63;;;4.90;;
56319;SDS011;42226;42.382;23.748;2022-09-03T17:29:31;4.90;;;4.50;;
56319;SDS011;42226;42.382;23.748;2022-09-03T17:35:07;5.68;;;5.18;;
56319;SDS011;42226;42.382;23.748;2022-09-03T17:37:49;5.40;;;4.95;;
56319;SDS011;42226;42.382;23.748;2022-09-03T17:46:25;6.05;;;5.55;;
56319;SDS011;42226;42.382;23.748;2022-09-03T17:49:01;5.65;;;5.15;;
56319;SDS011;42226;42.382;23.748;2022-09-03T17:57:30;6.93;;;6.00;;
56319;SDS011;42226;42.382;23.748;2022-09-03T18:00:08;5.40;;;5.00;;
56319;SDS011;42226;42.382;23.748;2022-09-03T18:02:53;5.63;;;5.00;;
56319;SDS011;42226;42.382;23.748;2022-09-03T18:05:48;5.40;;;5.00;;
56319;SDS011;42226;42.382;23.748;2022-09-03T18:08:35;5.25;;;4.85;;
56319;SDS011;42226;42.382;23.748;2022-09-03T18:11:18;6.00;;;5.50;;
56319;SDS011;42226;42.382;23.748;2022-09-03T18:18:00;6.43;;;5.93;;
56319;SDS011;42226;42.382;23.748;2022-09-03T18:20:50;6.22;;;5.72;;
56319;SDS011;42226;42.382;23.748;2022-09-03T18:26:56;6.63;;;6.03;;
56319;SDS011;42226;42.382;23.748;2022-09-03T18:29:53;5.68;;;5.20;;
56319;SDS011;42226;42.382;23.748;2022-09-03T18:32:43;5.70;;;5.20;;
56319;SDS011;42226;42.382;23.748;2022-09-03T18:38:17;6.55;;;5.68;;
56319;SDS011;42226;42.382;23.748;2022-09-03T18:51:25;6.38;;;5.82;;
56319;SDS011;42226;42.382;23.748;2022-09-03T18:57:40;7.95;;;7.25;;
56319;SDS011;42226;42.382;23.748;2022-09-03T19:00:58;7.22;;;6.63;;
56319;SDS011;42226;42.382;23.748;2022-09-03T19:07:39;6.90;;;6.30;;
56319;SDS011;42226;42.382;23.748;2022-09-03T19:10:47;6.93;;;6.32;;
56319;SDS011;42226;42.382;23.748;2022-09-03T19:13:46;6.85;;;6.25;;
56319;SDS011;42226;42.382;23.748;2022-09-03T19:16:36;7.60;;;6.90;;
56319;SDS011;42226;42.382;23.748;2022-09-03T19:20:23;7.50;;;6.82;;
56319;SDS011;42226;42.382;23.748;2022-09-03T19:23:15;7.40;;;6.80;;
56319;SDS011;42226;42.382;23.748;2022-09-03T19:26:05;7.45;;;5.93;;
56319;SDS011;42226;42.382;23.748;2022-09-03T19:29:33;7.43;;;6.78;;
56319;SDS011;42226;42.382;23.748;2022-09-03T19:32:33;8.30;;;7.60;;
56319;SDS011;42226;42.382;23.748;2022-09-03T19:35:59;8.40;;;7.60;;
56319;SDS011;42226;42.382;23.748;2022-09-03T19:42:25;7.90;;;7.20;;
56319;SDS011;42226;42.382;23.748;2022-09-03T19:49:07;7.95;;;6.90;;
56319;SDS011;42226;42.382;23.748;2022-09-03T19:55:33;8.45;;;7.65;;
56319;SDS011;42226;42.382;23.748;2022-09-03T19:58:23;9.75;;;8.00;;
56319;SDS011;42226;42.382;23.748;2022-09-03T20:01:13;7.88;;;7.13;;
56319;SDS011;42226;42.382;23.748;2022-09-03T20:04:13;8.93;;;8.02;;
56319;SDS011;42226;42.382;23.748;2022-09-03T20:07:02;7.95;;;7.18;;
56319;SDS011;42226;42.382;23.748;2022-09-03T20:09:51;7.35;;;6.60;;
56319;SDS011;42226;42.382;23.748;2022-09-03T20:12:41;7.40;;;6.70;;
56319;SDS011;42226;42.382;23.748;2022-09-03T20:15:15;7.43;;;6.82;;
56319;SDS011;42226;42.382;23.748;2022-09-03T20:21:04;7.45;;;6.85;;
56319;SDS011;42226;42.382;23.748;2022-09-03T20:23:57;7.95;;;7.28;;
56319;SDS011;42226;42.382;23.748;2022-09-03T20:26:39;7.57;;;6.80;;
56319;SDS011;42226;42.382;23.748;2022-09-03T20:29:36;7.63;;;6.85;;
56319;SDS011;42226;42.382;23.748;2022-09-03T20:32:33;8.77;;;7.30;;
56319;SDS011;42226;42.382;23.748;2022-09-03T20:35:18;7.80;;;7.20;;
56319;SDS011;42226;42.382;23.748;2022-09-03T20:38:20;7.57;;;6.97;;
56319;SDS011;42226;42.382;23.748;2022-09-03T20:41:21;7.70;;;7.10;;
56319;SDS011;42226;42.382;23.748;2022-09-03T20:44:03;7.88;;;7.18;;
56319;SDS011;42226;42.382;23.748;2022-09-03T20:49:39;7.97;;;7.38;;
56319;SDS011;42226;42.382;23.748;2022-09-03T20:55:41;7.65;;;6.90;;
56319;SDS011;42226;42.382;23.748;2022-09-03T21:01:09;7.68;;;6.97;;
56319;SDS011;42226;42.382;23.748;2022-09-03T21:04:16;7.88;;;7.22;;
56319;SDS011;42226;42.382;23.748;2022-09-03T21:07:06;8.38;;;7.45;;
56319;SDS011;42226;42.382;23.748;2022-09-03T21:10:11;7.60;;;6.78;;
56319;SDS011;42226;42.382;23.748;2022-09-03T21:22:20;7.95;;;7.35;;
56319;SDS011;42226;42.382;23.748;2022-09-03T21:25:14;8.37;;;7.70;;
56319;SDS011;42226;42.382;23.748;2022-09-03T21:30:42;7.30;;;6.60;;
56319;SDS011;42226;42.382;23.748;2022-09-03T21:33:37;10.50;;;7.70;;
56319;SDS011;42226;42.382;23.748;2022-09-03T21:36:14;8.90;;;7.63;;
56319;SDS011;42226;42.382;23.748;2022-09-03T21:38:45;8.60;;;7.80;;
56319;SDS011;42226;42.382;23.748;2022-09-03T21:41:37;8.75;;;7.95;;
56319;SDS011;42226;42.382;23.748;2022-09-03T21:44:41;8.65;;;7.72;;
56319;SDS011;42226;42.382;23.748;2022-09-03T21:47:18;9.05;;;8.25;;
56319;SDS011;42226;42.382;23.748;2022-09-03T21:52:46;10.25;;;9.25;;
56319;SDS011;42226;42.382;23.748;2022-09-03T22:01:31;9.90;;;9.02;;
56319;SDS011;42226;42.382;23.748;2022-09-03T22:04:30;9.32;;;8.35;;
56319;SDS011;42226;42.382;23.748;2022-09-03T22:07:03;8.52;;;7.80;;
56319;SDS011;42226;42.382;23.748;2022-09-03T22:13:03;9.15;;;8.35;;
56319;SDS011;42226;42.382;23.748;2022-09-03T22:16:08;9.10;;;8.25;;
56319;SDS011;42226;42.382;23.748;2022-09-03T22:18:54;9.38;;;8.48;;
56319;SDS011;42226;42.382;23.748;2022-09-03T22:21:31;9.95;;;8.95;;
56319;SDS011;42226;42.382;23.748;2022-09-03T22:24:33;9.60;;;8.80;;
56319;SDS011;42226;42.382;23.748;2022-09-03T22:27:30;10.25;;;9.23;;
56319;SDS011;42226;42.382;23.748;2022-09-03T22:30:18;9.70;;;8.82;;
56319;SDS011;42226;42.382;23.748;2022-09-03T22:35:56;10.90;;;8.05;;
56319;SDS011;42226;42.382;23.748;2022-09-03T22:38:36;9.20;;;8.30;;
56319;SDS011;42226;42.382;23.748;2022-09-03T22:48:03;10.13;;;9.20;;
56319;SDS011;42226;42.382;23.748;2022-09-03T22:56:29;10.60;;;9.63;;
56319;SDS011;42226;42.382;23.748;2022-09-03T23:17:12;10.50;;;9.52;;
56319;SDS011;42226;42.382;23.748;2022-09-03T23:19:53;9.50;;;8.60;;
56319;SDS011;42226;42.382;23.748;2022-09-03T23:22:39;9.65;;;8.75;;
56319;SDS011;42226;42.382;23.748;2022-09-03T23:25:46;9.82;;;8.93;;
56319;SDS011;42226;42.382;23.748;2022-09-03T23:28:39;10.25;;;9.15;;
56319;SDS011;42226;42.382;23.748;2022-09-03T23:31:21;9.63;;;8.63;;
56319;SDS011;42226;42.382;23.748;2022-09-03T23:33:52;9.38;;;8.55;;
56319;SDS011;42226;42.382;23.748;2022-09-03T23:43:04;9.40;;;7.63;;
56319;SDS011;42226;42.382;23.748;2022-09-03T23:46:15;8.70;;;8.00;;
